Time;durP1;ratioP1;P1;durP2;ratioP2;P2;SDS_P1;SDS_P2;PMS_P1;PMS_P2;Temp;Humidity;BMP_temperature;BMP_pressure;BME280_temperature;BME280_humidity;BME280_pressure;Samples;Min_cycle;Max_cycle;Signal;HPM_P1;HPM_P2
2021/03/28 00:00:01;;;;;;;9.55;2.50;;;7.20;99.90;;;;;;5055620;28;20049;-60
2021/03/28 00:02:35;;;;;;;6.35;2.58;;;7.20;99.90;;;;;;5056548;28;20029;-57
2021/03/28 00:05:07;;;;;;;4.45;2.35;;;7.20;99.90;;;;;;5037629;28;20032;-67
2021/03/28 00:07:43;;;;;;;6.85;3.05;;;7.10;99.90;;;;;;5038248;28;20025;-59
2021/03/28 00:10:39;;;;;;;7.18;2.78;;;7.10;99.90;;;;;;5055348;28;20037;-57
2021/03/28 00:13:12;;;;;;;10.68;3.20;;;7.20;99.90;;;;;;5032175;28;20466;-57
2021/03/28 00:15:46;;;;;;;10.77;3.80;;;7.20;99.90;;;;;;5055634;28;20379;-57
2021/03/28 00:18:36;;;;;;;6.15;2.53;;;7.20;99.90;;;;;;5055452;28;20488;-58
2021/03/28 00:21:19;;;;;;;11.52;2.80;;;7.20;99.90;;;;;;5054932;28;20037;-58
2021/03/28 00:23:48;;;;;;;8.60;2.60;;;7.10;99.90;;;;;;5055568;28;20029;-57
2021/03/28 00:26:30;;;;;;;6.03;2.80;;;7.10;99.90;;;;;;5055433;28;20024;-57
2021/03/28 00:29:12;;;;;;;9.55;3.38;;;7.10;99.90;;;;;;5054915;28;20029;-58
2021/03/28 00:32:00;;;;;;;6.28;3.08;;;7.20;99.90;;;;;;5055618;28;20040;-57
2021/03/28 00:34:39;;;;;;;6.63;2.42;;;7.10;99.90;;;;;;5055750;28;20107;-57
2021/03/28 00:37:08;;;;;;;8.55;3.17;;;7.30;99.90;;;;;;5036355;28;20025;-56
2021/03/28 00:39:39;;;;;;;8.52;3.45;;;7.20;99.90;;;;;;5037381;28;20056;-57
2021/03/28 00:42:23;;;;;;;8.27;2.53;;;7.20;99.90;;;;;;5054422;28;20459;-58
2021/03/28 00:45:16;;;;;;;5.65;2.25;;;7.10;99.90;;;;;;5054698;28;20143;-58
2021/03/28 00:47:48;;;;;;;8.48;2.35;;;7.20;99.90;;;;;;5017419;28;20065;-58
2021/03/28 00:50:22;;;;;;;6.57;2.42;;;7.30;99.90;;;;;;5037303;28;20052;-58
2021/03/28 00:52:55;;;;;;;6.40;2.22;;;7.20;99.90;;;;;;5054835;28;20033;-68
2021/03/28 00:55:40;;;;;;;9.20;3.15;;;7.10;99.90;;;;;;5054095;28;20048;-57
2021/03/28 00:58:30;;;;;;;7.82;2.80;;;7.10;99.90;;;;;;5054565;28;20021;-57
2021/03/28 01:01:15;;;;;;;8.85;2.40;;;7.10;99.90;;;;;;5054920;28;20395;-57
2021/03/28 01:04:18;;;;;;;9.10;3.08;;;7.00;99.90;;;;;;5036909;28;20025;-59
2021/03/28 01:06:52;;;;;;;10.55;3.20;;;7.00;99.90;;;;;;5054812;28;20059;-58
2021/03/28 01:09:36;;;;;;;11.40;3.35;;;7.00;99.90;;;;;;5054792;28;20059;-57
2021/03/28 01:12:39;;;;;;;9.07;2.50;;;7.10;99.90;;;;;;5054225;28;20455;-59
2021/03/28 01:15:19;;;;;;;6.85;3.13;;;6.90;99.90;;;;;;5036280;28;20029;-58
2021/03/28 01:18:08;;;;;;;8.13;2.60;;;7.10;99.90;;;;;;5054653;28;20037;-56
2021/03/28 01:20:41;;;;;;;5.65;2.38;;;7.00;99.90;;;;;;5054096;28;20055;-56
2021/03/28 01:23:34;;;;;;;7.72;2.70;;;7.10;99.90;;;;;;5053768;28;20459;-57
2021/03/28 01:26:17;;;;;;;4.07;2.30;;;7.20;99.90;;;;;;5053990;28;20028;-57
2021/03/28 01:28:54;;;;;;;12.45;2.60;;;7.20;99.90;;;;;;5054958;28;20103;-56
2021/03/28 01:31:22;;;;;;;4.40;2.45;;;7.30;99.90;;;;;;5054220;28;20359;-56
2021/03/28 01:33:54;;;;;;;9.57;2.50;;;7.30;99.90;;;;;;5036642;28;20033;-56
2021/03/28 01:36:26;;;;;;;;;;;7.40;99.90;;;;;;5037820;28;20025;-59
2021/03/28 01:39:07;;;;;;;5.78;2.63;;;7.30;99.90;;;;;;5054316;28;19984;-59
2021/03/28 01:41:41;;;;;;;7.57;2.70;;;7.30;99.90;;;;;;5055530;28;20025;-59
2021/03/28 01:44:21;;;;;;;7.13;2.85;;;7.30;99.90;;;;;;5054507;28;20033;-71
2021/03/28 01:47:07;;;;;;;7.80;3.08;;;7.30;99.90;;;;;;5054493;28;20033;-62
2021/03/28 01:49:58;;;;;;;5.60;2.53;;;7.40;99.90;;;;;;5053841;28;20033;-59
2021/03/28 01:52:52;;;;;;;6.53;2.38;;;7.50;99.90;;;;;;5054241;28;20436;-56
2021/03/28 01:55:26;;;;;;;5.53;2.53;;;7.40;99.90;;;;;;5017479;28;20433;-57
2021/03/28 01:58:03;;;;;;;10.25;2.83;;;7.40;99.90;;;;;;5035872;28;20044;-63
2021/03/28 02:00:50;;;;;;;7.03;2.80;;;7.40;99.90;;;;;;5053519;28;20041;-58
2021/03/28 02:03:19;;;;;;;6.75;2.95;;;7.40;99.90;;;;;;5035417;28;20078;-57
2021/03/28 02:05:59;;;;;;;8.00;2.97;;;7.50;99.90;;;;;;5053946;28;20055;-56
2021/03/28 02:08:46;;;;;;;10.02;2.97;;;7.50;99.90;;;;;;5054346;28;20057;-62
2021/03/28 02:11:53;;;;;;;6.97;2.65;;;7.60;99.90;;;;;;5054031;28;20379;-58
2021/03/28 02:14:44;;;;;;;7.95;2.90;;;7.70;99.90;;;;;;5054198;28;20036;-59
2021/03/28 02:17:39;;;;;;;10.77;3.97;;;7.60;99.90;;;;;;5053231;28;20039;-57
2021/03/28 02:20:11;;;;;;;10.13;3.40;;;7.60;99.90;;;;;;5053329;28;20056;-66
2021/03/28 02:22:59;;;;;;;5.68;2.97;;;7.60;99.90;;;;;;5053628;28;20021;-56
2021/03/28 02:25:48;;;;;;;7.55;2.85;;;7.50;99.90;;;;;;5020738;28;20040;-58
2021/03/28 02:28:47;;;;;;;11.70;4.35;;;7.50;99.90;;;;;;5053026;28;20041;-57
2021/03/28 02:31:24;;;;;;;10.50;3.25;;;7.60;99.90;;;;;;5052327;28;20387;-58
2021/03/28 02:34:13;;;;;;;8.25;3.35;;;7.50;99.90;;;;;;5052910;28;20053;-57
2021/03/28 02:36:44;;;;;;;12.23;3.42;;;7.50;99.90;;;;;;5053198;28;20032;-58
2021/03/28 02:39:43;;;;;;;6.85;3.08;;;7.60;99.90;;;;;;5034544;28;20048;-57
2021/03/28 02:42:15;;;;;;;7.90;3.60;;;7.60;99.90;;;;;;5034682;28;20090;-57
2021/03/28 02:44:54;;;;;;;9.60;3.53;;;7.70;99.90;;;;;;5053258;28;20485;-57
2021/03/28 02:47:39;;;;;;;9.57;3.63;;;7.70;99.90;;;;;;5052955;28;20035;-58
2021/03/28 02:50:23;;;;;;;8.30;3.25;;;7.60;99.90;;;;;;5052288;28;20060;-58
2021/03/28 02:53:26;;;;;;;12.68;3.28;;;7.50;99.90;;;;;;5034932;28;20032;-56
2021/03/28 02:56:00;;;;;;;10.35;3.90;;;7.60;99.90;;;;;;5052452;28;20463;-57
2021/03/28 02:58:53;;;;;;;7.43;4.10;;;7.40;99.90;;;;;;5053128;28;20025;-57
2021/03/28 03:01:45;;;;;;;7.70;3.88;;;7.50;99.90;;;;;;5034307;28;20040;-57
2021/03/28 03:04:26;;;;;;;7.15;4.00;;;7.50;99.90;;;;;;5040924;28;20044;-57
2021/03/28 03:07:01;;;;;;;15.45;4.63;;;7.40;99.90;;;;;;5052337;28;20017;-57
2021/03/28 03:09:45;;;;;;;12.90;3.95;;;7.30;99.90;;;;;;5052761;28;20033;-59
2021/03/28 03:12:42;;;;;;;7.85;3.50;;;7.30;99.90;;;;;;5052292;28;20116;-56
2021/03/28 03:15:39;;;;;;;11.55;4.93;;;7.30;99.90;;;;;;5034217;28;20037;-58
2021/03/28 03:18:42;;;;;;;8.10;4.00;;;7.40;99.90;;;;;;5050886;28;20033;-63
2021/03/28 03:21:14;;;;;;;10.75;4.40;;;7.40;99.90;;;;;;5033614;28;20044;-57
2021/03/28 03:24:17;;;;;;;8.23;3.60;;;7.40;99.90;;;;;;5052514;28;20025;-56
2021/03/28 03:26:52;;;;;;;9.70;3.53;;;7.30;99.90;;;;;;5052354;28;20056;-56
2021/03/28 03:29:38;;;;;;;13.57;4.05;;;7.40;99.90;;;;;;5051543;28;20049;-57
2021/03/28 03:32:03;;;;;;;11.88;3.40;;;7.40;99.90;;;;;;5052149;28;20417;-58
2021/03/28 03:34:57;;;;;;;9.02;5.00;;;7.40;99.90;;;;;;5051940;28;20021;-58
2021/03/28 03:37:25;;;;;;;10.68;3.88;;;7.40;99.90;;;;;;5052236;28;20025;-58
2021/03/28 03:40:06;;;;;;;14.43;4.20;;;7.50;99.90;;;;;;5052268;28;20055;-56
2021/03/28 03:42:56;;;;;;;8.10;3.92;;;7.50;99.90;;;;;;5052246;28;20035;-59
2021/03/28 03:45:24;;;;;;;12.23;4.28;;;7.50;99.90;;;;;;5051665;28;20072;-57
2021/03/28 03:48:09;;;;;;;10.77;4.47;;;7.50;99.90;;;;;;5051917;28;20029;-56
2021/03/28 03:50:56;;;;;;;9.93;4.05;;;7.50;99.90;;;;;;5034314;28;20029;-57
2021/03/28 03:54:01;;;;;;;13.68;4.25;;;7.60;99.90;;;;;;5033792;28;20378;-56
2021/03/28 03:56:44;;;;;;;10.15;4.28;;;7.60;99.90;;;;;;5040602;28;20425;-56
2021/03/28 03:59:29;;;;;;;14.60;4.25;;;7.60;99.90;;;;;;5051379;28;20413;-57
2021/03/28 04:02:16;;;;;;;11.00;4.32;;;7.60;99.90;;;;;;5052490;28;20139;-56
2021/03/28 04:05:04;;;;;;;8.13;4.47;;;7.70;99.90;;;;;;5034255;28;20477;-58
2021/03/28 04:07:55;;;;;;;13.10;5.18;;;7.70;99.90;;;;;;5052241;28;20021;-58
2021/03/28 04:10:32;;;;;;;8.70;3.20;;;7.60;99.90;;;;;;5051631;28;20071;-57
2021/03/28 04:13:08;;;;;;;8.23;3.70;;;7.60;99.90;;;;;;5052408;28;20036;-57
2021/03/28 04:15:49;;;;;;;10.13;4.40;;;7.60;99.90;;;;;;5052301;28;20040;-57
2021/03/28 04:18:43;;;;;;;9.95;3.80;;;7.70;99.90;;;;;;5050981;28;20059;-58
2021/03/28 04:21:42;;;;;;;11.00;3.60;;;7.60;99.90;;;;;;5051484;28;20079;-58
2021/03/28 04:24:27;;;;;;;13.40;4.00;;;7.60;99.90;;;;;;5051287;28;20033;-57
2021/03/28 04:27:06;;;;;;;14.68;4.30;;;7.50;99.90;;;;;;5051958;28;20032;-57
2021/03/28 04:29:32;;;;;;;9.43;3.88;;;7.60;99.90;;;;;;5035978;28;20029;-56
2021/03/28 04:32:03;;;;;;;9.07;4.15;;;7.70;99.90;;;;;;5055547;28;20033;-57
2021/03/28 04:34:51;;;;;;;12.57;4.13;;;7.60;99.90;;;;;;5037668;28;20390;-57
2021/03/28 04:37:40;;;;;;;10.20;3.60;;;7.50;99.90;;;;;;5054536;28;20025;-57
2021/03/28 04:40:25;;;;;;;10.27;3.83;;;7.60;99.90;;;;;;5054793;28;20161;-58
2021/03/28 04:43:06;;;;;;;7.93;3.90;;;7.50;99.90;;;;;;5036900;28;20075;-56
2021/03/28 04:45:57;;;;;;;17.13;5.47;;;7.60;99.90;;;;;;5037565;28;20036;-58
2021/03/28 04:48:39;;;;;;;11.27;4.50;;;7.70;99.90;;;;;;5016758;28;20041;-57
2021/03/28 04:51:26;;;;;;;8.50;4.57;;;7.50;99.90;;;;;;5036797;28;20391;-59
2021/03/28 04:54:10;;;;;;;12.25;3.95;;;7.30;99.90;;;;;;5055411;28;20029;-57
2021/03/28 04:56:54;;;;;;;8.02;4.15;;;7.40;99.90;;;;;;5055649;28;20032;-58
2021/03/28 04:59:49;;;;;;;13.23;4.15;;;7.50;99.90;;;;;;5037100;28;20069;-68
2021/03/28 05:02:18;;;;;;;13.50;4.70;;;7.50;99.90;;;;;;5054790;28;20049;-57
2021/03/28 05:05:22;;;;;;;10.18;4.43;;;7.50;99.90;;;;;;5055263;28;20109;-63
2021/03/28 05:08:19;;;;;;;8.27;3.95;;;7.50;99.90;;;;;;5055377;28;20087;-58
2021/03/28 05:10:57;;;;;;;9.73;3.38;;;7.50;99.90;;;;;;4985407;28;20486;-60
2021/03/28 05:13:52;;;;;;;10.07;4.28;;;7.40;99.90;;;;;;5054323;28;20033;-57
2021/03/28 05:17:09;;;;;;;10.35;4.28;;;7.70;99.90;;;;;;5054172;28;20497;-57
2021/03/28 05:19:58;;;;;;;9.60;4.18;;;7.70;99.90;;;;;;5055277;28;20041;-60
2021/03/28 05:22:51;;;;;;;10.00;3.75;;;7.60;99.90;;;;;;5054738;28;20548;-59
2021/03/28 05:25:47;;;;;;;14.57;4.47;;;7.60;99.90;;;;;;5054628;28;20055;-61
2021/03/28 05:28:30;;;;;;;8.73;3.92;;;7.70;99.90;;;;;;5054605;28;20383;-62
2021/03/28 05:31:18;;;;;;;13.55;4.50;;;7.70;99.90;;;;;;5055197;28;20479;-63
2021/03/28 05:34:04;;;;;;;14.90;4.60;;;7.70;99.90;;;;;;5055454;28;20406;-57
2021/03/28 05:36:39;;;;;;;13.85;5.35;;;7.80;99.90;;;;;;5055256;28;20423;-64
2021/03/28 05:39:36;;;;;;;11.25;4.10;;;7.90;99.90;;;;;;5036787;28;20025;-64
2021/03/28 05:42:30;;;;;;;9.85;4.65;;;7.80;99.90;;;;;;5054850;28;20028;-56
2021/03/28 05:45:21;;;;;;;12.52;4.20;;;7.80;99.90;;;;;;5036830;28;20386;-58
2021/03/28 05:48:09;;;;;;;6.93;3.72;;;7.80;99.90;;;;;;5036479;28;20033;-58
2021/03/28 05:51:00;;;;;;;9.43;4.88;;;7.90;99.90;;;;;;5054950;28;20036;-61
2021/03/28 05:53:47;;;;;;;8.88;4.22;;;7.90;99.90;;;;;;5053570;28;20193;-61
2021/03/28 05:57:01;;;;;;;10.13;5.07;;;7.90;99.90;;;;;;5053059;28;20107;-58
2021/03/28 05:59:57;;;;;;;11.00;5.13;;;8.10;99.90;;;;;;5053098;28;20375;-63
2021/03/28 06:02:46;;;;;;;8.68;4.30;;;8.00;99.90;;;;;;5053169;28;20033;-57
2021/03/28 06:05:49;;;;;;;17.55;4.93;;;7.90;99.90;;;;;;5053157;28;20390;-60
2021/03/28 06:08:18;;;;;;;10.63;3.83;;;7.90;99.90;;;;;;5035090;28;20021;-57
2021/03/28 06:11:05;;;;;;;12.30;5.45;;;7.90;99.90;;;;;;5053551;28;20025;-59
2021/03/28 06:13:59;;;;;;;12.38;5.18;;;7.90;99.90;;;;;;5053200;28;20040;-65
2021/03/28 06:16:40;;;;;;;13.63;4.30;;;8.00;99.90;;;;;;5053080;28;20033;-56
2021/03/28 06:19:29;;;;;;;12.05;4.63;;;8.00;99.90;;;;;;5053448;28;20056;-57
2021/03/28 06:22:04;;;;;;;10.38;4.47;;;8.00;99.90;;;;;;5053598;28;20467;-58
2021/03/28 06:24:55;;;;;;;13.57;4.80;;;8.00;99.90;;;;;;5034857;28;20478;-60
2021/03/28 06:27:39;;;;;;;8.98;4.43;;;8.00;99.90;;;;;;5052464;28;20028;-58
2021/03/28 06:30:23;;;;;;;10.65;4.22;;;8.00;99.90;;;;;;5053240;28;20041;-56
2021/03/28 06:33:14;;;;;;;11.43;3.65;;;8.00;99.90;;;;;;5053745;28;20032;-61
2021/03/28 06:36:22;;;;;;;11.20;4.07;;;7.90;99.90;;;;;;5054371;28;20047;-62
2021/03/28 06:39:25;;;;;;;10.25;4.32;;;7.80;99.90;;;;;;5036079;28;20509;-57
2021/03/28 06:42:12;;;;;;;11.68;4.38;;;7.70;99.90;;;;;;5053146;28;20119;-58
2021/03/28 06:45:09;;;;;;;9.00;4.38;;;7.70;99.90;;;;;;5053639;28;20493;-58
2021/03/28 06:47:59;;;;;;;14.60;4.53;;;7.80;99.90;;;;;;5053180;28;20029;-56
2021/03/28 06:50:45;;;;;;;12.00;4.40;;;7.90;99.90;;;;;;5034839;28;20490;-60
2021/03/28 06:53:59;;;;;;;10.60;3.72;;;7.90;99.90;;;;;;5034172;28;20025;-59
2021/03/28 06:56:49;;;;;;;8.73;3.67;;;8.10;99.90;;;;;;5052492;28;20025;-58
2021/03/28 06:59:48;;;;;;;13.43;5.15;;;8.10;99.90;;;;;;5052318;28;20064;-57
2021/03/28 07:02:37;;;;;;;14.00;4.75;;;8.20;99.90;;;;;;5035070;28;20032;-59
2021/03/28 07:05:17;;;;;;;14.90;5.20;;;8.30;99.90;;;;;;5035152;28;20478;-58
2021/03/28 07:07:55;;;;;;;13.85;4.63;;;8.50;99.90;;;;;;5052805;28;20108;-67
2021/03/28 07:10:39;;;;;;;10.07;5.22;;;8.80;99.90;;;;;;5052056;28;20436;-57
2021/03/28 07:13:42;;;;;;;9.90;4.68;;;9.10;99.90;;;;;;5052791;28;20083;-59
2021/03/28 07:16:34;;;;;;;10.82;4.45;;;9.60;99.90;;;;;;5034589;28;20040;-57
2021/03/28 07:19:20;;;;;;;9.80;4.40;;;9.90;99.70;;;;;;5052181;28;20466;-58
2021/03/28 07:21:56;;;;;;;11.82;5.53;;;10.20;98.90;;;;;;5052689;28;20037;-57
2021/03/28 07:24:37;;;;;;;13.68;5.65;;;10.40;98.00;;;;;;5052001;28;20025;-57
2021/03/28 07:27:27;;;;;;;14.63;5.80;;;10.60;97.90;;;;;;5034719;28;20068;-57
2021/03/28 07:30:12;;;;;;;15.40;5.18;;;10.70;97.30;;;;;;5052545;28;20037;-63
2021/03/28 07:32:44;;;;;;;11.15;4.88;;;10.60;97.30;;;;;;5052573;28;20029;-60
2021/03/28 07:35:34;;;;;;;13.70;5.68;;;11.10;97.10;;;;;;5034314;28;20060;-57
2021/03/28 07:38:27;;;;;;;11.40;5.65;;;11.10;96.60;;;;;;5034653;28;20112;-58
2021/03/28 07:41:01;;;;;;;10.50;6.00;;;11.10;96.10;;;;;;5053257;28;20029;-58
2021/03/28 07:44:04;;;;;;;10.73;5.13;;;10.80;96.40;;;;;;5033986;28;20033;-61
2021/03/28 07:47:03;;;;;;;14.82;6.05;;;10.70;96.40;;;;;;5052614;28;20037;-58
2021/03/28 07:49:56;;;;;;;8.75;5.03;;;11.00;95.90;;;;;;5053375;28;20033;-68
2021/03/28 07:52:37;;;;;;;11.85;5.20;;;11.20;95.60;;;;;;5036258;28;20025;-62
2021/03/28 07:55:20;;;;;;;12.60;5.07;;;11.30;95.30;;;;;;5054341;28;20029;-64
2021/03/28 07:58:17;;;;;;;10.43;4.68;;;11.40;94.60;;;;;;5053955;28;20025;-62
2021/03/28 08:01:14;;;;;;;12.80;4.22;;;11.50;94.70;;;;;;5036449;28;20041;-60
2021/03/28 08:03:45;;;;;;;20.85;6.05;;;11.50;94.60;;;;;;5034666;28;20036;-57
2021/03/28 08:06:17;;;;;;;;;;;11.80;94.30;;;;;;5056642;28;20100;-58
2021/03/28 08:09:01;;;;;;;12.68;4.68;;;11.80;93.90;;;;;;5056142;28;20380;-60
2021/03/28 08:11:54;;;;;;;11.18;4.90;;;11.90;93.80;;;;;;5057118;28;20021;-58
2021/03/28 08:15:00;;;;;;;14.55;5.68;;;12.20;93.50;;;;;;5054805;28;20060;-59
2021/03/28 08:17:36;;;;;;;8.77;4.95;;;12.50;93.00;;;;;;5036801;28;20439;-63
2021/03/28 08:20:08;;;;;;;14.38;5.38;;;12.70;92.40;;;;;;5064210;28;20506;-63
2021/03/28 08:22:34;;;;;;;13.68;5.78;;;12.70;92.50;;;;;;5074752;28;20029;-61
2021/03/28 08:25:14;;;;;;;12.55;6.60;;;13.10;91.50;;;;;;5075247;28;20032;-59
2021/03/28 08:28:17;;;;;;;12.50;5.22;;;13.30;91.00;;;;;;5073106;28;20111;-58
2021/03/28 08:31:06;;;;;;;9.07;5.32;;;13.20;90.80;;;;;;5074968;28;20386;-58
2021/03/28 08:34:16;;;;;;;12.02;5.45;;;13.20;90.60;;;;;;5074000;28;20099;-57
2021/03/28 08:36:51;;;;;;;16.05;5.38;;;13.40;90.00;;;;;;5074244;28;20120;-59
2021/03/28 08:39:29;;;;;;;11.98;5.57;;;13.20;89.60;;;;;;5073357;28;20036;-58
2021/03/28 08:42:12;;;;;;;12.30;5.00;;;13.50;89.60;;;;;;5075207;28;20025;-56
2021/03/28 08:45:05;;;;;;;10.65;5.55;;;13.90;89.00;;;;;;5074311;28;20028;-63
2021/03/28 08:47:54;;;;;;;12.00;5.43;;;14.00;88.70;;;;;;5073165;28;20035;-58
2021/03/28 08:50:44;;;;;;;9.07;4.97;;;13.90;86.80;;;;;;5066849;28;20452;-61
2021/03/28 08:53:39;;;;;;;19.52;5.90;;;13.60;86.90;;;;;;5064170;28;20032;-59
2021/03/28 08:56:30;;;;;;;10.35;5.00;;;13.80;86.90;;;;;;5054405;28;20036;-58
2021/03/28 08:59:07;;;;;;;11.93;5.80;;;14.20;86.40;;;;;;5053982;28;20037;-57
2021/03/28 09:02:07;;;;;;;13.82;5.60;;;14.00;85.70;;;;;;5063107;28;20059;-60
2021/03/28 09:04:39;;;;;;;9.75;5.32;;;14.00;84.90;;;;;;5062174;28;20031;-59
2021/03/28 09:07:25;;;;;;;10.48;5.65;;;14.30;85.60;;;;;;5056929;28;20029;-57
2021/03/28 09:10:28;;;;;;;12.38;6.00;;;14.50;84.70;;;;;;5053399;28;20056;-57
2021/03/28 09:13:32;;;;;;;12.70;6.05;;;15.10;82.50;;;;;;5051176;28;20029;-58
2021/03/28 09:16:33;;;;;;;14.40;5.72;;;15.60;83.10;;;;;;5029692;28;20037;-59
2021/03/28 09:19:20;;;;;;;14.52;5.78;;;15.60;82.10;;;;;;5035454;28;20057;-59
2021/03/28 09:22:23;;;;;;;11.15;4.55;;;16.20;80.90;;;;;;5036363;28;20367;-58
2021/03/28 09:25:29;;;;;;;9.65;3.38;;;15.90;76.20;;;;;;5037274;28;20044;-60
2021/03/28 09:28:16;;;;;;;9.80;3.88;;;15.60;77.00;;;;;;5023258;28;20051;-60
2021/03/28 09:31:06;;;;;;;13.10;4.28;;;15.60;78.10;;;;;;5040629;28;20017;-59
2021/03/28 09:34:02;;;;;;;4.60;2.35;;;15.40;77.00;;;;;;5042174;28;20022;-49
2021/03/28 09:37:07;;;;;;;14.70;4.38;;;16.60;85.10;;;;;;5031526;28;20033;-49
2021/03/28 09:39:49;;;;;;;13.23;3.42;;;16.50;76.50;;;;;;5045417;28;20037;-58
2021/03/28 09:42:58;;;;;;;9.43;4.40;;;16.00;75.40;;;;;;5021677;28;20033;-57
2021/03/28 09:45:53;;;;;;;12.27;4.82;;;16.10;73.90;;;;;;5033175;28;20389;-60
2021/03/28 09:48:39;;;;;;;9.77;4.50;;;16.40;73.60;;;;;;5001275;28;20482;-65
2021/03/28 09:51:27;;;;;;;11.13;4.30;;;15.90;73.60;;;;;;5026616;28;20040;-59
2021/03/28 09:54:02;;;;;;;13.95;5.53;;;15.70;75.40;;;;;;5029200;28;20442;-61
2021/03/28 09:56:40;;;;;;;12.43;4.88;;;16.20;73.40;;;;;;5032691;28;20060;-59
2021/03/28 09:59:34;;;;;;;11.30;4.15;;;16.10;72.50;;;;;;5035575;28;20072;-58
2021/03/28 10:02:36;;;;;;;8.82;3.28;;;15.60;74.80;;;;;;5034258;28;20443;-58
2021/03/28 10:05:08;;;;;;;7.97;3.22;;;15.60;74.50;;;;;;5038626;28;20171;-57
2021/03/28 10:08:02;;;;;;;10.35;4.05;;;15.80;76.40;;;;;;5036941;28;20037;-58
2021/03/28 10:10:46;;;;;;;8.25;3.47;;;15.80;74.90;;;;;;5038386;28;20106;-58
2021/03/28 10:13:20;;;;;;;7.53;3.55;;;16.40;74.30;;;;;;5019913;28;20025;-57
2021/03/28 10:16:15;;;;;;;6.90;4.10;;;15.40;73.40;;;;;;5038068;28;20120;-58
2021/03/28 10:18:58;;;;;;;11.52;4.30;;;15.00;74.30;;;;;;5034330;28;20045;-59
2021/03/28 10:22:06;;;;;;;16.50;4.80;;;14.90;74.70;;;;;;5041384;28;20025;-58
2021/03/28 10:24:39;;;;;;;11.27;3.20;;;14.40;76.30;;;;;;5019345;28;20030;-62
2021/03/28 10:27:39;;;;;;;8.57;2.97;;;14.30;76.80;;;;;;5014570;28;20057;-58
2021/03/28 10:30:29;;;;;;;8.50;2.72;;;14.30;77.60;;;;;;5022648;28;20478;-61
2021/03/28 10:32:58;;;;;;;9.50;2.65;;;14.00;79.30;;;;;;5050629;28;20029;-58
2021/03/28 10:35:51;;;;;;;11.27;3.38;;;14.00;79.90;;;;;;5043697;28;20025;-60
2021/03/28 10:38:37;;;;;;;7.90;2.90;;;14.00;79.60;;;;;;5041347;28;20019;-63
2021/03/28 10:41:22;;;;;;;9.35;3.10;;;13.80;80.60;;;;;;5043150;28;20061;-62
2021/03/28 10:43:56;;;;;;;10.02;3.55;;;14.20;80.00;;;;;;5021110;28;20044;-62
2021/03/28 10:46:41;;;;;;;7.22;3.72;;;14.90;80.00;;;;;;5012741;28;20079;-61
2021/03/28 10:49:29;;;;;;;6.32;3.35;;;15.80;78.70;;;;;;5012970;28;20112;-59
2021/03/28 10:52:22;;;;;;;9.77;3.08;;;16.60;75.80;;;;;;5031074;28;20032;-60
2021/03/28 10:55:11;;;;;;;8.25;2.35;;;16.30;69.20;;;;;;5030128;28;20025;-61
2021/03/28 10:58:14;;;;;;;6.35;1.63;;;15.90;68.60;;;;;;5038183;28;20101;-59
2021/03/28 11:01:03;;;;;;;5.10;1.33;;;15.80;64.30;;;;;;5035512;28;20042;-58
2021/03/28 11:04:06;;;;;;;6.35;1.48;;;15.90;63.80;;;;;;5033432;28;20060;-58
2021/03/28 11:07:07;;;;;;;3.17;1.27;;;16.20;61.80;;;;;;5016294;28;20025;-60
2021/03/28 11:09:51;;;;;;;7.50;1.55;;;16.20;62.40;;;;;;5021487;28;20466;-59
2021/03/28 11:12:44;;;;;;;9.77;2.13;;;16.00;62.50;;;;;;5036447;28;20025;-60
2021/03/28 11:15:49;;;;;;;7.47;1.30;;;15.70;62.80;;;;;;5032536;28;20038;-61
2021/03/28 11:18:36;;;;;;;10.77;1.63;;;15.30;62.10;;;;;;5046539;28;20095;-60
2021/03/28 11:21:37;;;;;;;5.15;1.52;;;15.30;61.90;;;;;;5032087;28;20362;-60
2021/03/28 11:24:27;;;;;;;4.20;1.00;;;15.60;61.10;;;;;;5035521;28;20041;-60
2021/03/28 11:27:08;;;;;;;4.78;1.30;;;15.40;60.00;;;;;;5032763;28;20151;-59
2021/03/28 11:30:04;;;;;;;3.92;1.38;;;15.40;60.20;;;;;;5038450;28;20047;-60
2021/03/28 11:32:57;;;;;;;3.22;1.27;;;15.40;59.50;;;;;;5031749;28;20068;-60
2021/03/28 11:35:40;;;;;;;2.78;0.98;;;15.40;59.80;;;;;;5039088;28;20041;-62
2021/03/28 11:38:18;;;;;;;7.57;2.38;;;15.70;59.20;;;;;;5046423;28;20025;-59
2021/03/28 11:41:06;;;;;;;5.95;2.15;;;16.00;58.80;;;;;;5038528;28;20087;-60
2021/03/28 11:43:49;;;;;;;8.35;2.47;;;15.90;58.80;;;;;;5046437;28;20477;-64
2021/03/28 11:46:47;;;;;;;4.95;1.65;;;15.90;60.10;;;;;;5022302;28;20033;-61
2021/03/28 11:49:16;;;;;;;5.72;1.67;;;15.70;59.30;;;;;;5029143;28;20013;-64
2021/03/28 11:52:08;;;;;;;4.55;2.13;;;15.70;59.80;;;;;;5038977;28;20155;-64
2021/03/28 11:54:34;;;;;;;;;;;15.70;59.20;;;;;;5019416;28;20048;-60
2021/03/28 11:57:02;;;;;;;3.67;1.10;;;15.40;60.50;;;;;;5050307;28;20370;-59
2021/03/28 11:59:31;;;;;;;6.80;1.58;;;15.60;60.80;;;;;;5054942;28;20041;-59
2021/03/28 12:01:57;;;;;;;4.78;1.08;;;15.60;61.00;;;;;;5037681;28;20025;-67
2021/03/28 12:04:44;;;;;;;6.75;1.42;;;15.70;61.30;;;;;;5037649;28;20065;-59
2021/03/28 12:07:27;;;;;;;4.18;1.10;;;15.90;60.40;;;;;;5055239;28;20079;-59
2021/03/28 12:09:59;;;;;;;6.65;1.40;;;16.00;59.90;;;;;;5036792;28;20032;-59
2021/03/28 12:12:33;;;;;;;3.60;1.42;;;16.20;60.00;;;;;;5037440;28;20029;-65
2021/03/28 12:15:37;;;;;;;6.15;2.33;;;15.80;59.80;;;;;;5054941;28;20084;-61
2021/03/28 12:18:25;;;;;;;4.20;1.55;;;15.60;60.80;;;;;;5017573;28;20115;-60
2021/03/28 12:21:02;;;;;;;8.20;1.80;;;15.40;61.00;;;;;;5037003;28;20182;-60
2021/03/28 12:23:40;;;;;;;5.07;1.92;;;15.50;61.00;;;;;;5054311;28;20029;-64
2021/03/28 12:26:16;;;;;;;5.40;1.75;;;15.70;61.70;;;;;;5055319;28;20029;-60
2021/03/28 12:28:44;;;;;;;8.13;2.03;;;16.10;60.50;;;;;;5036852;28;20075;-61
2021/03/28 12:31:37;;;;;;;6.70;1.85;;;16.50;60.30;;;;;;5036311;28;20032;-60
2021/03/28 12:34:24;;;;;;;18.83;1.65;;;16.90;58.30;;;;;;5055552;28;20021;-57
2021/03/28 12:37:06;;;;;;;6.28;1.40;;;17.00;58.20;;;;;;5035996;28;20224;-60
2021/03/28 12:39:58;;;;;;;5.22;1.33;;;17.10;58.50;;;;;;5016898;28;20331;-60
2021/03/28 12:42:28;;;;;;;4.32;1.30;;;17.50;61.50;;;;;;5033063;28;20029;-58
2021/03/28 12:45:09;;;;;;;4.50;2.03;;;17.60;56.20;;;;;;5034289;28;20044;-58
2021/03/28 12:47:50;;;;;;;4.60;1.20;;;17.40;56.50;;;;;;5032446;28;20025;-61
2021/03/28 12:50:19;;;;;;;3.78;1.63;;;17.50;56.70;;;;;;5031529;28;20048;-58
2021/03/28 12:52:52;;;;;;;4.00;1.58;;;18.20;56.40;;;;;;5034961;28;20029;-60
2021/03/28 12:55:24;;;;;;;5.15;1.42;;;18.00;55.20;;;;;;5032678;28;20052;-59
2021/03/28 12:57:54;;;;;;;4.45;1.73;;;17.80;54.90;;;;;;5032796;28;20021;-60
2021/03/28 13:00:35;;;;;;;5.18;1.55;;;18.00;56.00;;;;;;5032706;28;20072;-59
2021/03/28 13:03:31;;;;;;;8.82;1.63;;;18.40;54.30;;;;;;5041841;28;20051;-59
2021/03/28 13:05:59;;;;;;;4.75;2.05;;;18.50;54.70;;;;;;5052532;28;20036;-60
2021/03/28 13:08:25;;;;;;;5.60;1.52;;;17.90;54.10;;;;;;5033911;28;20025;-59
2021/03/28 13:10:58;;;;;;;9.07;1.95;;;18.00;55.20;;;;;;5051732;28;20547;-60
2021/03/28 13:13:26;;;;;;;6.00;1.40;;;17.80;53.80;;;;;;5035357;28;20052;-59
2021/03/28 13:15:56;;;;;;;5.93;2.22;;;17.90;54.40;;;;;;5030775;28;20590;-59
2021/03/28 13:18:40;;;;;;;3.40;1.63;;;18.00;53.70;;;;;;5031776;28;20041;-58
2021/03/28 13:21:17;;;;;;;5.82;1.63;;;17.30;53.90;;;;;;5015071;28;20498;-58
2021/03/28 13:23:48;;;;;;;4.78;1.65;;;17.30;54.50;;;;;;5031611;28;20136;-59
2021/03/28 13:26:32;;;;;;;4.28;1.60;;;17.80;54.30;;;;;;5032633;28;20029;-57
2021/03/28 13:29:14;;;;;;;6.55;1.55;;;17.40;54.10;;;;;;5015123;28;20421;-59
2021/03/28 13:31:42;;;;;;;3.85;1.27;;;17.00;54.60;;;;;;5045235;28;20025;-59
2021/03/28 13:34:25;;;;;;;5.25;1.52;;;17.30;55.00;;;;;;5044501;28;20044;-59
2021/03/28 13:37:09;;;;;;;6.25;1.65;;;17.40;54.20;;;;;;5034891;28;20025;-59
2021/03/28 13:39:55;;;;;;;6.03;1.52;;;17.50;54.20;;;;;;5031166;28;20034;-60
2021/03/28 13:42:44;;;;;;;6.53;2.38;;;17.20;54.00;;;;;;5015565;28;20175;-60
2021/03/28 13:45:21;;;;;;;6.45;1.30;;;17.50;54.40;;;;;;4981223;28;20053;-59
2021/03/28 13:47:57;;;;;;;5.60;1.83;;;17.70;53.50;;;;;;5012605;28;20087;-60
2021/03/28 13:50:45;;;;;;;4.80;1.52;;;17.80;53.80;;;;;;5013109;28;20052;-59
2021/03/28 13:53:17;;;;;;;4.13;1.40;;;17.60;54.10;;;;;;5031315;28;20439;-59
2021/03/28 13:55:50;;;;;;;3.83;1.20;;;17.70;53.90;;;;;;5029776;28;20029;-58
2021/03/28 13:58:29;;;;;;;4.25;1.23;;;17.40;54.30;;;;;;5013669;28;20540;-59
2021/03/28 14:01:27;;;;;;;3.30;1.45;;;17.50;54.20;;;;;;5013514;28;20025;-59
2021/03/28 14:04:14;;;;;;;5.88;1.40;;;17.50;54.20;;;;;;5023060;28;20025;-60
2021/03/28 14:06:41;;;;;;;4.25;1.65;;;17.60;54.40;;;;;;5041918;28;20443;-60
2021/03/28 14:09:10;;;;;;;2.55;1.10;;;17.50;53.50;;;;;;5050927;28;20032;-60
2021/03/28 14:11:55;;;;;;;7.32;1.45;;;17.60;53.60;;;;;;5050196;28;20028;-58
2021/03/28 14:14:25;;;;;;;5.10;1.40;;;17.30;53.30;;;;;;5032572;28;20021;-63
2021/03/28 14:16:54;;;;;;;7.40;1.70;;;17.30;53.70;;;;;;5048978;28;20701;-60
2021/03/28 14:19:32;;;;;;;4.60;1.50;;;17.20;53.90;;;;;;5031219;28;20107;-60